Time;durP1;ratioP1;P1;durP2;ratioP2;P2;SDS_P1;SDS_P2;PMS_P1;PMS_P2;Temp;Humidity;BMP_temperature;BMP_pressure;BME280_temperature;BME280_humidity;BME280_pressure;Samples;Min_cycle;Max_cycle;Signal;HPM_P1;HPM_P2
2023/05/24 00:01:25;;;;;;;;;;;;;;;18.66;64.60;99372.59;5091513;28;20288;-36
2023/05/24 00:03:51;;;;;;;;;;;;;;;18.92;63.96;99376.19;5091598;28;19923;-36
2023/05/24 00:06:17;;;;;;;;;;;;;;;19.09;63.34;99380.53;5091440;28;20565;-36
2023/05/24 00:08:43;;;;;;;;;;;;;;;19.00;63.62;99371.34;5091527;28;19947;-35
2023/05/24 00:11:09;;;;;;;;;;;;;;;19.13;63.18;99358.16;5091809;28;20368;-35
2023/05/24 00:13:35;;;;;;;;;;;;;;;19.09;62.52;99348.97;5091566;28;19912;-36
2023/05/24 00:16:00;;;;;;;;;;;;;;;19.18;62.60;99357.34;5091378;28;20069;-36
2023/05/24 00:18:25;;;;;;;;;;;;;;;19.34;61.74;99366.22;5091244;28;20436;-35
2023/05/24 00:20:52;;;;;;;;;;;;;;;19.34;61.05;99372.44;5091221;28;19922;-36
2023/05/24 00:23:17;;;;;;;;;;;;;;;19.45;60.71;99377.84;5091242;28;19916;-35
2023/05/24 00:25:42;;;;;;;;;;;;;;;19.50;60.63;99370.53;5091005;28;19989;-36
2023/05/24 00:28:08;;;;;;;;;;;;;;;19.57;60.17;99372.16;5090809;28;20352;-36
2023/05/24 00:30:33;;;;;;;;;;;;;;;19.57;60.37;99372.16;5091078;28;19928;-36
2023/05/24 00:32:58;;;;;;;;;;;;;;;19.51;60.36;99372.19;5091116;28;20469;-36
2023/05/24 00:35:23;;;;;;;;;;;;;;;19.57;60.07;99370.25;5090597;28;19918;-35
2023/05/24 00:37:49;;;;;;;;;;;;;;;19.47;60.75;99362.97;5090143;28;19913;-36
2023/05/24 00:40:14;;;;;;;;;;;;;;;19.17;61.10;99357.59;5090444;28;20027;-36
2023/05/24 00:42:40;;;;;;;;;;;;;;;19.08;61.63;99354.66;5090465;28;20045;-35
2023/05/24 00:45:05;;;;;;;;;;;;;;;19.08;61.49;99349.25;5091111;28;19919;-36
2023/05/24 00:47:31;;;;;;;;;;;;;;;19.25;60.72;99351.69;5090818;28;20308;-35
2023/05/24 00:49:56;;;;;;;;;;;;;;;19.27;60.40;99347.63;5090695;28;19939;-35
2023/05/24 00:52:22;;;;;;;;;;;;;;;19.01;61.58;99346.00;5090715;28;19924;-35
2023/05/24 00:54:47;;;;;;;;;;;;;;;18.66;62.35;99350.25;5090757;28;19919;-35
2023/05/24 00:57:13;;;;;;;;;;;;;;;18.70;61.82;99340.56;5090786;28;19955;-35
2023/05/24 00:59:39;;;;;;;;;;;;;;;18.68;61.97;99342.72;5090601;28;19912;-36
2023/05/24 01:02:04;;;;;;;;;;;;;;;18.73;61.65;99335.44;5091215;28;19913;-36
2023/05/24 01:04:31;;;;;;;;;;;;;;;18.94;61.17;99338.16;5090982;28;19912;-35
2023/05/24 01:07:02;;;;;;;;;;;;;;;18.74;61.50;99344.31;5091003;28;20068;-36
2023/05/24 01:09:33;;;;;;;;;;;;;;;18.91;60.59;99334.13;5091096;28;19912;-36
2023/05/24 01:11:58;;;;;;;;;;;;;;;18.44;61.73;99336.97;5091029;28;19973;-35
2023/05/24 01:14:23;;;;;;;;;;;;;;;18.58;61.13;99335.38;5090738;28;19998;-35
2023/05/24 01:16:52;;;;;;;;;;;;;;;18.30;62.12;99331.28;5090826;28;20356;-35
2023/05/24 01:19:26;;;;;;;;;;;;;;;18.15;62.79;99340.13;5090887;28;19923;-35
2023/05/24 01:22:01;;;;;;;;;;;;;;;18.39;62.13;99335.09;5090841;28;19916;-35
2023/05/24 01:24:55;;;;;;;;;;;;;;;17.91;63.52;99334.34;5090838;28;19912;-35
2023/05/24 01:27:21;;;;;;;;;;;;;;;17.86;63.90;99326.22;5085148;28;19919;-35
2023/05/24 01:29:52;;;;;;;;;;;;;;;18.30;62.51;99328.59;5089950;28;19947;-35
2023/05/24 01:32:18;;;;;;;;;;;;;;;18.25;62.53;99331.25;5090470;28;19927;-35
2023/05/24 01:34:43;;;;;;;;;;;;;;;18.00;62.74;99331.97;5090691;28;19916;-35
2023/05/24 01:37:09;;;;;;;;;;;;;;;17.76;63.75;99329.66;5090573;28;19919;-35
2023/05/24 01:39:34;;;;;;;;;;;;;;;17.58;64.53;99336.28;5090417;28;19923;-35
2023/05/24 01:42:15;;;;;;;;;;;;;;;17.62;64.46;99331.19;5090411;28;19912;-37
2023/05/24 01:44:59;;;;;;;;;;;;;;;17.57;64.62;99330.09;5090457;28;19912;-35
2023/05/24 01:47:24;;;;;;;;;;;;;;;17.24;65.77;99330.41;5090701;28;19947;-37
2023/05/24 01:49:52;;;;;;;;;;;;;;;17.24;65.74;99333.88;5089947;28;19955;-37
2023/05/24 01:52:22;;;;;;;;;;;;;;;17.44;64.99;99335.09;5090261;28;19924;-37
2023/05/24 01:54:51;;;;;;;;;;;;;;;17.56;64.61;99339.22;5090367;28;20006;-37
2023/05/24 01:57:18;;;;;;;;;;;;;;;17.87;63.39;99342.13;5090427;28;19962;-37
2023/05/24 01:59:44;;;;;;;;;;;;;;;18.17;62.43;99348.75;5090321;28;19935;-37
2023/05/24 02:02:10;;;;;;;;;;;;;;;18.12;61.80;99348.69;5090150;28;20006;-37
2023/05/24 02:04:35;;;;;;;;;;;;;;;18.23;62.10;99354.94;5090224;28;19912;-37
2023/05/24 02:07:00;;;;;;;;;;;;;;;18.16;61.74;99358.69;5090084;28;20021;-37
2023/05/24 02:09:25;;;;;;;;;;;;;;;18.18;62.22;99361.09;5090226;28;19919;-37
2023/05/24 02:11:51;;;;;;;;;;;;;;;18.29;61.78;99368.16;5090290;28;19943;-34
2023/05/24 02:14:18;;;;;;;;;;;;;;;18.22;61.66;99374.88;5089928;28;19920;-37
2023/05/24 02:16:45;;;;;;;;;;;;;;;18.19;61.81;99381.59;5090542;28;19985;-36
2023/05/24 02:19:11;;;;;;;;;;;;;;;18.22;61.89;99388.31;5090384;28;19920;-37
2023/05/24 02:21:36;;;;;;;;;;;;;;;18.43;61.14;99378.44;5089789;28;20002;-36
2023/05/24 02:24:02;;;;;;;;;;;;;;;18.38;61.36;99373.88;5090019;28;19912;-36
2023/05/24 02:26:27;;;;;;;;;;;;;;;18.40;61.60;99379.00;5090074;28;20343;-37
2023/05/24 02:28:52;;;;;;;;;;;;;;;18.30;61.55;99377.06;5089865;28;20472;-38
2023/05/24 02:31:17;;;;;;;;;;;;;;;17.95;62.70;99378.50;5089915;28;20344;-42
2023/05/24 02:33:43;;;;;;;;;;;;;;;18.31;61.31;99384.88;5089830;28;19923;-42
2023/05/24 02:36:08;;;;;;;;;;;;;;;18.33;61.03;99382.75;5089626;28;20240;-42
2023/05/24 02:38:35;;;;;;;;;;;;;;;18.34;61.07;99387.03;5089658;28;20007;-42
2023/05/24 02:41:01;;;;;;;;;;;;;;;18.42;60.48;99396.50;5089714;28;19923;-42
2023/05/24 02:43:26;;;;;;;;;;;;;;;18.32;61.10;99399.16;5089729;28;19916;-42
2023/05/24 02:45:52;;;;;;;;;;;;;;;18.14;62.06;99406.63;5089697;28;20329;-42
2023/05/24 02:48:17;;;;;;;;;;;;;;;17.54;64.26;99399.75;5089735;28;19912;-42
2023/05/24 02:50:42;;;;;;;;;;;;;;;17.06;66.55;99401.47;5089686;28;19981;-42
2023/05/24 02:53:07;;;;;;;;;;;;;;;17.11;66.45;99405.00;5089623;28;19919;-42
2023/05/24 02:55:33;;;;;;;;;;;;;;;17.43;65.75;99398.84;5089739;28;19918;-42
2023/05/24 02:57:58;;;;;;;;;;;;;;;17.08;65.76;99402.06;5089182;28;19967;-42
2023/05/24 03:00:23;;;;;;;;;;;;;;;16.61;68.47;99409.59;5089532;28;19912;-42
2023/05/24 03:02:49;;;;;;;;;;;;;;;15.91;70.94;99402.25;5093280;28;20450;-40
2023/05/24 03:05:15;;;;;;;;;;;;;;;15.98;71.86;99406.38;5093168;28;19912;-41
2023/05/24 03:07:41;;;;;;;;;;;;;;;16.58;69.53;99401.22;5093199;28;20306;-41
2023/05/24 03:10:06;;;;;;;;;;;;;;;16.96;67.89;99405.72;5093168;28;19912;-41
2023/05/24 03:12:32;;;;;;;;;;;;;;;16.98;67.37;99406.25;5093042;28;19916;-41
2023/05/24 03:14:57;;;;;;;;;;;;;;;17.12;66.03;99395.09;5092774;28;19937;-42
2023/05/24 03:17:22;;;;;;;;;;;;;;;17.23;66.37;99390.59;5093017;28;19919;-41
2023/05/24 03:19:48;;;;;;;;;;;;;;;17.34;66.12;99387.75;5092815;28;19912;-41
2023/05/24 03:22:13;;;;;;;;;;;;;;;17.42;65.79;99399.09;5092730;28;19912;-41
2023/05/24 03:24:38;;;;;;;;;;;;;;;17.23;66.58;99393.28;5092823;28;19912;-41
2023/05/24 03:27:05;;;;;;;;;;;;;;;17.45;65.34;99398.59;5092840;28;19912;-41
2023/05/24 03:29:30;;;;;;;;;;;;;;;17.61;64.88;99405.72;5092597;28;19920;-41
2023/05/24 03:31:55;;;;;;;;;;;;;;;17.68;64.55;99394.72;5092764;28;19943;-41
2023/05/24 03:34:21;;;;;;;;;;;;;;;17.86;64.04;99396.22;5092367;28;20556;-41
2023/05/24 03:36:46;;;;;;;;;;;;;;;17.92;64.11;99405.97;5092528;28;19928;-40
2023/05/24 03:39:11;;;;;;;;;;;;;;;18.21;63.25;99403.69;5092763;28;19916;-41
2023/05/24 03:41:36;;;;;;;;;;;;;;;18.45;62.41;99403.22;5092072;28;20375;-41
2023/05/24 03:44:02;;;;;;;;;;;;;;;18.44;62.23;99402.44;5092285;28;19912;-41
2023/05/24 03:46:27;;;;;;;;;;;;;;;18.41;61.36;99396.75;5092458;28;19916;-41
2023/05/24 03:48:52;;;;;;;;;;;;;;;18.63;60.61;99394.69;5092292;28;19912;-41
2023/05/24 03:51:18;;;;;;;;;;;;;;;18.94;59.88;99398.31;5092539;28;19924;-41
2023/05/24 03:53:44;;;;;;;;;;;;;;;19.15;58.66;99401.00;5092705;28;19919;-41
2023/05/24 03:56:09;;;;;;;;;;;;;;;19.64;57.56;99394.28;5092484;28;20404;-41
2023/05/24 03:58:34;;;;;;;;;;;;;;;20.11;56.82;99398.53;5092264;28;19911;-41
2023/05/24 04:01:00;;;;;;;;;;;;;;;20.46;55.30;99396.78;5092424;28;19912;-40
2023/05/24 04:03:25;;;;;;;;;;;;;;;20.64;54.31;99403.50;5092323;28;19923;-40
2023/05/24 04:05:51;;;;;;;;;;;;;;;20.68;54.30;99408.06;5091659;28;19916;-41
2023/05/24 04:08:16;;;;;;;;;;;;;;;20.90;54.32;99406.84;5091609;28;19916;-41
2023/05/24 04:10:41;;;;;;;;;;;;;;;21.42;52.48;99397.28;5091210;28;20453;-41
2023/05/24 04:13:07;;;;;;;;;;;;;;;21.75;51.95;99394.84;5091405;28;19923;-41
2023/05/24 04:15:32;;;;;;;;;;;;;;;22.02;51.21;99405.13;5092037;28;19912;-41
2023/05/24 04:17:59;;;;;;;;;;;;;;;22.48;50.33;99405.72;5091768;28;20393;-41
2023/05/24 04:20:26;;;;;;;;;;;;;;;22.90;49.53;99406.78;5091970;28;19991;-41
2023/05/24 04:22:51;;;;;;;;;;;;;;;22.99;49.43;99410.44;5091675;28;20143;-41
2023/05/24 04:25:16;;;;;;;;;;;;;;;23.27;47.96;99416.84;5091640;28;19912;-41
2023/05/24 04:27:43;;;;;;;;;;;;;;;23.60;46.75;99414.94;5091593;28;19920;-41
2023/05/24 04:30:09;;;;;;;;;;;;;;;23.76;46.15;99417.38;5091559;28;20006;-41
2023/05/24 04:32:35;;;;;;;;;;;;;;;23.88;46.08;99403.38;5090979;28;20448;-41
2023/05/24 04:35:04;;;;;;;;;;;;;;;24.09;45.77;99404.56;5091317;28;19961;-41
2023/05/24 04:37:30;;;;;;;;;;;;;;;24.33;44.98;99407.09;5091382;28;20501;-41
2023/05/24 04:39:56;;;;;;;;;;;;;;;24.54;43.89;99399.34;5091764;28;19912;-40
2023/05/24 04:42:21;;;;;;;;;;;;;;;24.55;43.61;99395.50;5091331;28;20283;-39
2023/05/24 04:44:46;;;;;;;;;;;;;;;25.07;42.14;99402.53;5091147;28;19923;-39
2023/05/24 04:47:12;;;;;;;;;;;;;;;25.17;41.56;99402.31;5091250;28;19939;-40
2023/05/24 04:49:38;;;;;;;;;;;;;;;25.78;40.43;99400.00;5090434;28;19999;-40
2023/05/24 04:52:03;;;;;;;;;;;;;;;25.90;40.01;99399.41;5090403;28;19916;-41
2023/05/24 04:54:29;;;;;;;;;;;;;;;26.24;38.89;99406.94;5090188;28;20396;-41
2023/05/24 04:56:54;;;;;;;;;;;;;;;26.64;38.65;99411.56;5090333;28;19911;-40
2023/05/24 04:59:19;;;;;;;;;;;;;;;27.09;38.06;99406.59;5090368;28;20261;-41
2023/05/24 05:01:45;;;;;;;;;;;;;;;27.49;37.19;99406.44;5093165;28;20623;-41
2023/05/24 05:04:11;;;;;;;;;;;;;;;27.93;36.05;99410.97;5099158;28;20259;-41
2023/05/24 05:06:39;;;;;;;;;;;;;;;28.09;34.96;99417.53;5090334;28;20016;-39
2023/05/24 05:09:12;;;;;;;;;;;;;;;28.13;34.37;99420.41;5090037;28;19912;-42
2023/05/24 05:11:37;;;;;;;;;;;;;;;28.57;34.10;99423.72;5090796;28;19989;-42
2023/05/24 05:14:03;;;;;;;;;;;;;;;28.17;34.09;99421.34;5090830;28;19975;-41
2023/05/24 05:16:28;;;;;;;;;;;;;;;28.51;34.00;99422.31;5090232;28;19922;-41
2023/05/24 05:18:53;;;;;;;;;;;;;;;29.00;33.45;99425.38;5089926;28;19912;-41
2023/05/24 05:21:19;;;;;;;;;;;;;;;28.27;34.39;99426.44;5090227;28;20011;-40
2023/05/24 05:23:44;;;;;;;;;;;;;;;29.08;33.18;99419.00;5089872;28;20357;-40
2023/05/24 05:26:10;;;;;;;;;;;;;;;29.45;32.62;99430.13;5090545;28;19947;-40
2023/05/24 05:28:35;;;;;;;;;;;;;;;29.89;32.65;99422.31;5090367;28;19926;-40
2023/05/24 05:31:00;;;;;;;;;;;;;;;29.28;32.62;99422.09;5091018;28;20353;-40
2023/05/24 05:33:26;;;;;;;;;;;;;;;28.35;34.31;99436.56;5089154;28;19916;-40
2023/05/24 05:35:51;;;;;;;;;;;;;;;29.04;33.55;99437.25;5090478;28;19923;-41
2023/05/24 05:38:16;;;;;;;;;;;;;;;29.69;32.71;99434.91;5090090;28;19920;-40
2023/05/24 05:40:42;;;;;;;;;;;;;;;30.31;32.06;99435.81;5087996;28;19940;-40
2023/05/24 05:43:08;;;;;;;;;;;;;;;30.66;31.81;99429.06;5089732;28;19951;-40
2023/05/24 05:45:33;;;;;;;;;;;;;;;31.09;30.83;99433.09;5089848;28;19996;-41
2023/05/24 05:47:58;;;;;;;;;;;;;;;31.63;30.64;99432.66;5089972;28;20462;-40
2023/05/24 05:50:23;;;;;;;;;;;;;;;31.92;29.72;99431.44;5089756;28;19931;-40
2023/05/24 05:52:49;;;;;;;;;;;;;;;32.02;29.28;99434.84;5089738;28;19916;-41
2023/05/24 05:55:14;;;;;;;;;;;;;;;31.81;29.93;99427.59;5087061;28;19923;-40
2023/05/24 05:57:40;;;;;;;;;;;;;;;32.04;29.63;99438.03;5087617;28;19916;-42
2023/05/24 06:00:05;;;;;;;;;;;;;;;32.32;29.52;99433.22;5089620;28;19912;-41
2023/05/24 06:02:31;;;;;;;;;;;;;;;32.35;29.25;99442.72;5089067;28;19916;-41
2023/05/24 06:04:56;;;;;;;;;;;;;;;32.98;28.58;99439.03;5089458;28;19912;-40
2023/05/24 06:07:21;;;;;;;;;;;;;;;33.31;28.30;99446.81;5099024;28;20424;-40
2023/05/24 06:09:47;;;;;;;;;;;;;;;33.49;28.00;99447.16;5107525;28;19908;-39
2023/05/24 06:12:12;;;;;;;;;;;;;;;33.63;27.87;99445.84;5108283;28;19923;-41
2023/05/24 06:14:37;;;;;;;;;;;;;;;34.13;27.66;99454.22;5108680;28;20014;-41
2023/05/24 06:17:04;;;;;;;;;;;;;;;33.36;27.92;99445.72;5108624;28;19911;-42
2023/05/24 06:19:29;;;;;;;;;;;;;;;32.70;28.63;99458.50;5107858;28;20353;-41
2023/05/24 06:21:55;;;;;;;;;;;;;;;33.46;27.95;99449.84;5107465;28;19969;-43
2023/05/24 06:24:20;;;;;;;;;;;;;;;33.63;27.97;99454.94;5108224;28;19908;-41
2023/05/24 06:26:46;;;;;;;;;;;;;;;33.59;28.24;99459.56;5108035;28;19969;-41
2023/05/24 06:29:12;;;;;;;;;;;;;;;33.71;28.51;99466.09;5107959;28;20378;-41
2023/05/24 06:31:38;;;;;;;;;;;;;;;33.75;28.22;99461.44;5108587;28;19927;-42
2023/05/24 06:34:03;;;;;;;;;;;;;;;34.19;27.93;99459.06;5090863;28;19916;-41
2023/05/24 06:36:28;;;;;;;;;;;;;;;34.23;27.74;99459.94;5090257;28;20376;-42
2023/05/24 06:38:53;;;;;;;;;;;;;;;34.83;26.41;99464.00;5092223;28;20023;-40
2023/05/24 06:41:19;;;;;;;;;;;;;;;34.61;26.81;99454.56;5091964;28;20011;-41
2023/05/24 06:43:45;;;;;;;;;;;;;;;35.13;26.26;99464.00;5091748;28;19916;-41
2023/05/24 06:46:10;;;;;;;;;;;;;;;35.44;26.21;99460.03;5092034;28;19923;-42
2023/05/24 06:48:35;;;;;;;;;;;;;;;34.96;25.48;99462.59;5091843;28;19938;-43
2023/05/24 06:51:01;;;;;;;;;;;;;;;35.23;26.14;99459.78;5092088;28;19932;-41
2023/05/24 06:53:26;;;;;;;;;;;;;;;34.96;26.36;99459.03;5092569;28;20514;-42
2023/05/24 06:55:51;;;;;;;;;;;;;;;34.02;27.50;99462.31;5093118;28;19916;-41
2023/05/24 06:58:16;;;;;;;;;;;;;;;34.00;26.96;99464.63;5093062;28;19912;-41
2023/05/24 07:00:44;;;;;;;;;;;;;;;33.67;27.23;99455.00;5091807;28;19916;-41
2023/05/24 07:03:09;;;;;;;;;;;;;;;33.96;26.51;99450.78;5092088;28;19939;-43
2023/05/24 07:05:35;;;;;;;;;;;;;;;34.21;26.78;99451.22;5091325;28;20268;-42
2023/05/24 07:08:00;;;;;;;;;;;;;;;34.49;26.73;99439.03;5108174;28;20290;-42
2023/05/24 07:10:26;;;;;;;;;;;;;;;35.37;26.39;99439.78;5113678;28;19924;-42
2023/05/24 07:12:51;;;;;;;;;;;;;;;35.74;25.55;99439.81;5113316;28;19920;-44
2023/05/24 07:15:16;;;;;;;;;;;;;;;35.91;24.77;99445.88;5111217;28;20010;-41
2023/05/24 07:17:42;;;;;;;;;;;;;;;35.96;25.48;99440.78;5111180;28;19920;-42
2023/05/24 07:20:10;;;;;;;;;;;;;;;36.09;24.97;99444.06;5111376;28;19915;-41
2023/05/24 07:22:35;;;;;;;;;;;;;;;35.71;25.35;99445.31;5111698;28;19915;-41
2023/05/24 07:25:01;;;;;;;;;;;;;;;35.53;25.21;99434.03;5112016;28;19937;-41
2023/05/24 07:27:27;;;;;;;;;;;;;;;35.21;25.93;99438.03;5111739;28;19919;-41
2023/05/24 07:29:52;;;;;;;;;;;;;;;36.05;24.56;99443.25;5112742;28;19999;-42
2023/05/24 07:32:18;;;;;;;;;;;;;;;36.59;23.92;99446.41;5110352;28;19916;-41
2023/05/24 07:34:43;;;;;;;;;;;;;;;37.12;23.61;99442.34;5092097;28;19958;-42
2023/05/24 07:37:09;;;;;;;;;;;;;;;37.22;23.56;99441.59;5091947;28;19912;-41
2023/05/24 07:39:34;;;;;;;;;;;;;;;37.15;23.30;99438.84;5092264;28;19932;-41
2023/05/24 07:42:00;;;;;;;;;;;;;;;37.04;22.94;99435.97;5092018;28;19919;-40
2023/05/24 07:44:25;;;;;;;;;;;;;;;37.09;23.59;99437.56;5092446;28;19973;-41
2023/05/24 07:46:51;;;;;;;;;;;;;;;37.37;23.57;99434.91;5090300;28;20420;-40
2023/05/24 07:49:16;;;;;;;;;;;;;;;36.76;24.16;99433.88;5090998;28;20002;-41
2023/05/24 07:51:41;;;;;;;;;;;;;;;37.47;23.21;99435.34;5091660;28;19920;-41
2023/05/24 07:54:06;;;;;;;;;;;;;;;37.83;22.73;99427.09;5091450;28;19912;-42
2023/05/24 07:56:32;;;;;;;;;;;;;;;36.73;23.19;99426.34;5091594;28;20280;-41
2023/05/24 07:59:03;;;;;;;;;;;;;;;36.62;23.37;99436.56;5091333;28;19912;-40
2023/05/24 08:01:33;;;;;;;;;;;;;;;36.59;23.48;99433.38;5091555;28;19919;-41
2023/05/24 08:03:58;;;;;;;;;;;;;;;37.27;23.59;99432.13;5091212;28;20316;-41
2023/05/24 08:06:24;;;;;;;;;;;;;;;37.83;23.15;99435.41;5094025;28;19912;-42
2023/05/24 08:08:50;;;;;;;;;;;;;;;36.38;24.28;99430.47;5111198;28;19919;-41
2023/05/24 08:11:15;;;;;;;;;;;;;;;35.42;24.68;99426.44;5111555;28;19923;-41
2023/05/24 08:13:40;;;;;;;;;;;;;;;35.95;23.60;99430.13;5110266;28;20004;-41
2023/05/24 08:16:05;;;;;;;;;;;;;;;34.85;25.08;99423.75;5111613;28;19937;-40
2023/05/24 08:18:32;;;;;;;;;;;;;;;34.71;24.60;99423.59;5111689;28;19973;-42
2023/05/24 08:20:57;;;;;;;;;;;;;;;34.03;26.62;99422.50;5111241;28;20149;-40
2023/05/24 08:23:22;;;;;;;;;;;;;;;34.38;25.78;99427.81;5111200;28;19938;-41
2023/05/24 08:25:47;;;;;;;;;;;;;;;33.83;26.32;99430.06;5111470;28;20045;-41
2023/05/24 08:28:13;;;;;;;;;;;;;;;34.59;25.43;99419.03;5111046;28;20003;-41
2023/05/24 08:30:38;;;;;;;;;;;;;;;35.89;24.13;99424.16;5110822;28;19938;-41
2023/05/24 08:33:03;;;;;;;;;;;;;;;36.44;23.01;99428.13;5111149;28;19912;-41
2023/05/24 08:35:29;;;;;;;;;;;;;;;36.82;24.13;99424.00;5110834;28;19912;-42
2023/05/24 08:37:54;;;;;;;;;;;;;;;36.71;23.44;99423.16;5110867;28;19919;-41
2023/05/24 08:40:19;;;;;;;;;;;;;;;36.71;22.93;99428.69;5110960;28;20014;-40
2023/05/24 08:42:45;;;;;;;;;;;;;;;37.12;22.30;99420.16;5110609;28;20027;-42
2023/05/24 08:45:11;;;;;;;;;;;;;;;36.46;23.31;99429.34;5110720;28;20046;-42
2023/05/24 08:47:37;;;;;;;;;;;;;;;36.27;23.91;99430.41;5097802;28;19923;-41
2023/05/24 08:50:03;;;;;;;;;;;;;;;36.06;23.44;99427.41;5090342;28;19916;-41
2023/05/24 08:52:30;;;;;;;;;;;;;;;37.10;23.00;99431.63;5089875;28;19926;-41
2023/05/24 08:54:57;;;;;;;;;;;;;;;37.68;22.79;99426.28;5090247;28;19912;-41
2023/05/24 08:57:23;;;;;;;;;;;;;;;37.59;21.84;99425.88;5089923;28;20367;-41
2023/05/24 08:59:48;;;;;;;;;;;;;;;38.02;21.28;99415.56;5089981;28;20014;-41
2023/05/24 09:02:16;;;;;;;;;;;;;;;37.68;21.79;99418.75;5089814;28;20007;-40
2023/05/24 09:04:43;;;;;;;;;;;;;;;38.10;21.75;99427.53;5090035;28;20016;-42
2023/05/24 09:07:08;;;;;;;;;;;;;;;38.06;21.86;99424.72;5099031;28;19912;-41
2023/05/24 09:09:36;;;;;;;;;;;;;;;38.14;21.31;99419.97;5109518;28;19934;-40
2023/05/24 09:12:03;;;;;;;;;;;;;;;37.69;21.23;99414.78;5110397;28;20306;-40
2023/05/24 09:14:29;;;;;;;;;;;;;;;37.94;21.37;99419.56;5110316;28;20376;-41
2023/05/24 09:16:55;;;;;;;;;;;;;;;37.50;21.34;99415.91;5110611;28;19911;-41
2023/05/24 09:19:21;;;;;;;;;;;;;;;37.69;21.67;99422.31;5110314;28;20288;-42
2023/05/24 09:21:48;;;;;;;;;;;;;;;37.95;21.90;99421.16;5109002;28;19968;-42
2023/05/24 09:24:14;;;;;;;;;;;;;;;38.05;21.56;99414.78;5109947;28;19912;-41
2023/05/24 09:26:39;;;;;;;;;;;;;;;37.91;21.37;99420.38;5110481;28;19998;-41
2023/05/24 09:29:08;;;;;;;;;;;;;;;37.92;21.05;99419.94;5110152;28;20385;-41
2023/05/24 09:31:34;;;;;;;;;;;;;;;37.48;21.36;99406.41;5110111;27;19924;-42
2023/05/24 09:33:59;;;;;;;;;;;;;;;38.06;21.21;99405.28;5109825;28;19968;-41
2023/05/24 09:36:28;;;;;;;;;;;;;;;38.19;20.76;99405.66;5110261;28;20399;-46
2023/05/24 09:39:15;;;;;;;;;;;;;;;37.06;21.06;99413.41;5110036;28;19916;-42
2023/05/24 09:41:42;;;;;;;;;;;;;;;37.71;20.99;99411.63;5109821;28;19912;-42
2023/05/24 09:44:07;;;;;;;;;;;;;;;37.49;20.18;99405.22;5109697;28;19947;-40
2023/05/24 09:46:37;;;;;;;;;;;;;;;37.24;20.82;99414.28;5105563;28;19955;-42
2023/05/24 09:49:02;;;;;;;;;;;;;;;37.77;20.66;99404.47;5089361;28;19912;-43
2023/05/24 09:51:28;;;;;;;;;;;;;;;37.41;20.68;99404.41;5089205;28;20347;-42
2023/05/24 09:53:59;;;;;;;;;;;;;;;37.31;21.08;99396.88;5089667;28;19992;-42
2023/05/24 09:56:25;;;;;;;;;;;;;;;37.10;21.43;99397.56;5088846;28;19951;-42
2023/05/24 09:58:50;;;;;;;;;;;;;;;37.80;20.73;99398.16;5089358;28;20348;-42
2023/05/24 10:01:17;;;;;;;;;;;;;;;38.13;20.08;99399.72;5089413;28;19912;-41
2023/05/24 10:03:52;;;;;;;;;;;;;;;38.33;19.64;99402.09;5089494;28;19920;-43
2023/05/24 10:06:17;;;;;;;;;;;;;;;37.79;20.42;99393.78;5090770;28;20261;-41
2023/05/24 10:08:43;;;;;;;;;;;;;;;38.30;20.26;99381.44;5109518;28;20446;-41
2023/05/24 10:11:08;;;;;;;;;;;;;;;38.66;19.60;99398.03;5111245;28;20006;-40
2023/05/24 10:13:35;;;;;;;;;;;;;;;38.87;19.54;99397.16;5113868;28;19912;-41
2023/05/24 10:16:00;;;;;;;;;;;;;;;38.37;19.42;99385.44;5113978;28;19912;-40
2023/05/24 10:18:25;;;;;;;;;;;;;;;37.88;19.79;99393.38;5113686;28;20052;-41
2023/05/24 10:20:53;;;;;;;;;;;;;;;36.47;20.97;99391.34;5113762;28;20345;-42
2023/05/24 10:23:19;;;;;;;;;;;;;;;36.72;20.72;99385.94;5113745;28;19916;-41
2023/05/24 10:25:49;;;;;;;;;;;;;;;37.02;21.20;99394.00;5114129;28;19919;-42
2023/05/24 10:28:15;;;;;;;;;;;;;;;36.67;20.54;99384.34;5113654;28;20010;-41
2023/05/24 10:31:13;;;;;;;;;;;;;;;36.64;20.21;99384.31;5113477;28;19965;-41
2023/05/24 10:33:41;;;;;;;;;;;;;;;36.97;20.56;99378.50;5100939;28;19968;-42
2023/05/24 10:36:08;;;;;;;;;;;;;;;37.07;20.87;99378.94;5113409;28;19912;-43
2023/05/24 10:38:36;;;;;;;;;;;;;;;37.25;21.23;99373.50;5113028;28;19912;-42
2023/05/24 10:41:01;;;;;;;;;;;;;;;37.65;20.94;99368.81;5113161;28;19915;-43
2023/05/24 10:43:26;;;;;;;;;;;;;;;37.21;20.79;99373.47;5113338;28;19912;-41
2023/05/24 10:45:52;;;;;;;;;;;;;;;36.36;21.72;99369.13;5113463;28;20399;-41
2023/05/24 10:48:23;;;;;;;;;;;;;;;34.93;22.86;99358.31;5094310;28;20433;-39
2023/05/24 10:50:48;;;;;;;;;;;;;;;34.38;23.88;99361.53;5092546;28;19912;-41
2023/05/24 10:53:17;;;;;;;;;;;;;;;34.46;24.36;99357.72;5092613;28;20000;-42
2023/05/24 10:55:53;;;;;;;;;;;;;;;34.19;23.48;99348.66;5092842;28;19916;-42
2023/05/24 10:58:19;;;;;;;;;;;;;;;34.42;23.40;99350.53;5092614;28;19912;-40
2023/05/24 11:00:44;;;;;;;;;;;;;;;35.16;22.43;99338.81;5092584;28;19930;-41
2023/05/24 11:03:11;;;;;;;;;;;;;;;35.52;22.70;99347.50;5092550;28;19920;-42
2023/05/24 11:05:46;;;;;;;;;;;;;;;36.26;22.16;99337.41;5092261;28;20003;-43
2023/05/24 11:08:12;;;;;;;;;;;;;;;35.68;21.63;99340.94;5110443;28;19916;-41
2023/05/24 11:10:37;;;;;;;;;;;;;;;35.96;21.68;99335.59;5112629;28;19912;-41
2023/05/24 11:13:07;;;;;;;;;;;;;;;36.33;21.29;99339.44;5112571;28;19972;-42
2023/05/24 11:15:32;;;;;;;;;;;;;;;35.27;22.46;99336.19;5112561;28;20388;-42
2023/05/24 11:18:12;;;;;;;;;;;;;;;35.75;22.42;99341.00;5112361;28;19919;-41
2023/05/24 11:20:38;;;;;;;;;;;;;;;36.27;21.84;99336.25;5112353;28;19912;-42
2023/05/24 11:23:08;;;;;;;;;;;;;;;36.20;21.91;99341.72;5112811;28;19911;-41
2023/05/24 11:25:35;;;;;;;;;;;;;;;34.61;23.00;99331.06;5112592;28;19942;-41
2023/05/24 11:28:01;;;;;;;;;;;;;;;34.23;23.73;99332.94;5112442;28;19959;-42
2023/05/24 11:30:26;;;;;;;;;;;;;;;34.06;23.22;99333.44;5112708;28;19955;-41
2023/05/24 11:32:52;;;;;;;;;;;;;;;34.94;23.21;99331.47;5112272;28;19927;-42
2023/05/24 11:35:21;;;;;;;;;;;;;;;35.33;22.24;99331.91;5112038;28;19911;-41
2023/05/24 11:37:47;;;;;;;;;;;;;;;35.57;21.63;99332.53;5112199;28;20052;-41
2023/05/24 11:40:12;;;;;;;;;;;;;;;35.74;22.01;99337.44;5112338;28;20383;-41
2023/05/24 11:42:38;;;;;;;;;;;;;;;35.44;21.21;99329.25;5112049;28;20283;-41
2023/05/24 11:45:05;;;;;;;;;;;;;;;36.03;20.93;99332.09;5112071;27;19919;-41
2023/05/24 11:47:34;;;;;;;;;;;;;;;35.50;21.99;99338.00;5099897;28;19912;-41
2023/05/24 11:49:59;;;;;;;;;;;;;;;34.01;24.23;99339.28;5091723;28;20039;-40
2023/05/24 11:52:25;;;;;;;;;;;;;;;33.34;25.16;99340.53;5091340;28;20380;-42
2023/05/24 11:54:50;;;;;;;;;;;;;;;32.57;25.71;99338.59;5092012;28;20042;-41
2023/05/24 11:57:18;;;;;;;;;;;;;;;32.27;26.57;99342.69;5091302;28;20050;-43
2023/05/24 11:59:43;;;;;;;;;;;;;;;32.05;26.64;99324.06;5091396;28;20019;-42
2023/05/24 12:02:09;;;;;;;;;;;;;;;32.13;26.49;99314.81;5091454;28;19999;-39
2023/05/24 12:04:34;;;;;;;;;;;;;;;32.63;25.83;99307.66;5090971;28;20049;-41
2023/05/24 12:07:00;;;;;;;;;;;;;;;32.76;25.72;99305.56;5099341;28;19919;-40
2023/05/24 12:09:25;;;;;;;;;;;;;;;33.63;24.55;99297.72;5111610;28;19999;-41
2023/05/24 12:11:51;;;;;;;;;;;;;;;33.73;25.25;99293.53;5111573;28;19916;-41
2023/05/24 12:14:18;;;;;;;;;;;;;;;32.76;25.00;99289.03;5111505;28;19916;-41
2023/05/24 12:16:44;;;;;;;;;;;;;;;33.44;24.51;99275.72;5111549;28;19964;-41
2023/05/24 12:19:15;;;;;;;;;;;;;;;33.50;24.14;99279.75;5111443;28;19990;-42
2023/05/24 12:21:41;;;;;;;;;;;;;;;33.85;23.28;99276.78;5111240;28;19919;-42
2023/05/24 12:24:13;;;;;;;;;;;;;;;33.77;24.49;99275.06;5111138;28;19919;-42
2023/05/24 12:26:46;;;;;;;;;;;;;;;34.26;23.15;99268.69;5111405;28;20143;-43
2023/05/24 12:29:12;;;;;;;;;;;;;;;34.00;23.14;99271.47;5111279;28;19920;-42
2023/05/24 12:31:40;;;;;;;;;;;;;;;33.16;23.20;99274.03;5110941;28;19926;-42
2023/05/24 12:34:09;;;;;;;;;;;;;;;32.23;24.23;99272.97;5110435;28;19934;-41
2023/05/24 12:36:35;;;;;;;;;;;;;;;32.26;24.54;99277.75;5110600;28;19915;-40
2023/05/24 12:39:04;;;;;;;;;;;;;;;31.79;24.94;99278.63;5111115;28;20372;-41
2023/05/24 12:41:30;;;;;;;;;;;;;;;31.99;24.15;99271.25;5110797;28;19923;-42
2023/05/24 12:43:56;;;;;;;;;;;;;;;31.92;24.71;99262.84;5110726;28;20413;-40